Tug "trevor" — WCP6921 — position and weather

sailwx.info

Track history (hours):
 
Tides and Currents Weather Stations Pressure Air Temp Water Temp Dewpoint Dewpoint Depression Visibility Wind Speed Wind Dir Waves Ship Positions

Tug "trevor"

Owner: WEEKS MARINE, INC., CRANFORD, NJ. More information available from US FCC via Universal Licensing System and Coast Guard Vessel Documentation Center.

Last reported at 2015-Sep-04 07:33 UTC. Time now 2015-Sep-04 07:56 UTC.
Position N 39°03' W 075°10'.

Length 21 m.

Type: Dredging. MMSI: 366643140.

Date/timePositionNaut miles runAvg speedWind from/ knotsBaromVisibWave heightAir tempDewpointWater temp
2015-Sep-04 07:33N 39°03' W 075°10'0 0.1
2015-Sep-04 06:33N 39°03' W 075°10'0 0.0
2015-Sep-04 05:33N 39°03' W 075°10'0 0.2
2015-Sep-04 04:33N 39°04' W 075°10'0 0.3
2015-Sep-04 03:33N 39°04' W 075°11'1 0.6
2015-Sep-04 02:33N 39°03' W 075°10'1 0.9
2015-Sep-04 01:33N 39°04' W 075°11'0 0.5
2015-Sep-04 00:33N 39°04' W 075°10'0 0.3
2015-Sep-03 23:33N 39°03' W 075°10'0 0.4
2015-Sep-03 22:33N 39°04' W 075°10'1 1.2
2015-Sep-03 21:33N 39°03' W 075°10'5 5.4
2015-Sep-03 20:33N 38°58' W 075°07'6 6.2
2015-Sep-03 19:33N 38°51' W 075°06'4 3.8
2015-Sep-03 18:33N 38°48' W 075°06'0 0.0
2015-Sep-03 17:33N 38°48' W 075°06'0 0.0
2015-Sep-03 16:33N 38°48' W 075°06'0 0.3
2015-Sep-03 15:33N 38°48' W 075°06'5 4.8
2015-Sep-03 14:33N 38°53' W 075°06'4 4.4
2015-Sep-03 13:33N 38°57' W 075°07'7 7.0
2015-Sep-03 12:33N 39°04' W 075°11'1 1.3
2015-Sep-03 11:33N 39°05' W 075°11'0 0.1
2015-Sep-03 10:33N 39°05' W 075°11'0 0.3
2015-Sep-03 09:33N 39°05' W 075°11'0 0.1
2015-Sep-03 08:33N 39°05' W 075°11'0 0.1
2015-Sep-03 07:33N 39°05' W 075°11'0 0.1
2015-Sep-03 06:33N 39°05' W 075°11'0 0.1
2015-Sep-03 05:33N 39°05' W 075°11'0 0.1
2015-Sep-03 04:33N 39°05' W 075°11'0 0.0
2015-Sep-03 03:27N 39°05' W 075°11'0 0.1
2015-Sep-03 02:33N 39°05' W 075°11'0 0.1
2015-Sep-03 01:33N 39°05' W 075°11'0 0.0
2015-Sep-03 00:33N 39°05' W 075°11'0 0.2
2015-Sep-02 23:33N 39°05' W 075°11'0 0.0
2015-Sep-02 22:33N 39°05' W 075°11'0 0.2
2015-Sep-02 21:33N 39°05' W 075°11'0 0.3
2015-Sep-02 20:33N 39°05' W 075°11'0 0.0
2015-Sep-02 19:33N 39°05' W 075°11'0 0.2
2015-Sep-02 18:33N 39°05' W 075°11'0 0.1
2015-Sep-02 17:33N 39°05' W 075°11'0 0.1
2015-Sep-02 16:33N 39°05' W 075°11'0 0.1
2015-Sep-02 15:33N 39°05' W 075°11'0 0.1
2015-Sep-02 14:33N 39°05' W 075°11'0 0.2
2015-Sep-02 13:26N 39°05' W 075°11'1 1.0
2015-Sep-02 12:33N 39°04' W 075°11'6 6.5
2015-Sep-02 11:34N 38°58' W 075°08'1 1.5
2015-Sep-02 10:33N 38°60' W 075°08'5 5.3
2015-Sep-02 09:33N 39°05' W 075°11'0 0.1
2015-Sep-02 08:33N 39°05' W 075°11'0 0.2
2015-Sep-02 07:33N 39°04' W 075°11'0 0.1
2015-Sep-02 06:33N 39°04' W 075°11'0 0.2
2015-Sep-02 05:33N 39°05' W 075°11'0 0.0
2015-Sep-02 04:33N 39°05' W 075°11'0 0.1
2015-Sep-02 03:33N 39°05' W 075°11'0 0.1
2015-Sep-02 02:33N 39°05' W 075°11'0 0.2
2015-Sep-02 01:33N 39°04' W 075°11'0 0.1
2015-Sep-02 00:33N 39°05' W 075°11'0 0.0
2015-Sep-01 23:33N 39°05' W 075°11'0 0.3
2015-Sep-01 22:33N 39°04' W 075°11'0 0.1
2015-Sep-01 21:33N 39°04' W 075°11'0 0.1
2015-Sep-01 20:33N 39°04' W 075°11'0 0.0
2015-Sep-01 19:33N 39°04' W 075°11'0 0.0
2015-Sep-01 18:33N 39°04' W 075°11'0 0.1
2015-Sep-01 17:33N 39°04' W 075°11'0 0.1
2015-Sep-01 16:33N 39°04' W 075°11'0 0.1
2015-Sep-01 15:33N 39°04' W 075°11'0 0.1
2015-Sep-01 14:32N 39°04' W 075°11'0 0.2
2015-Sep-01 13:27N 39°04' W 075°11'0 0.4
2015-Sep-01 12:33N 39°05' W 075°11'6 5.6
2015-Sep-01 11:33N 38°60' W 075°08'7 7.4
2015-Sep-01 10:33N 38°52' W 075°06'4 4.3
2015-Sep-01 09:33N 38°48' W 075°06'0 0.3
2015-Sep-01 08:33N 38°48' W 075°06'0 0.0
2015-Sep-01 07:33N 38°48' W 075°06'0 0.0
2015-Sep-01 06:33N 38°48' W 075°06'0 0.0
2015-Sep-01 05:33N 38°48' W 075°06'0 0.0
2015-Sep-01 04:33N 38°48' W 075°06'0 0.0
2015-Sep-01 03:33N 38°48' W 075°06'0 0.0
2015-Sep-01 02:33N 38°48' W 075°06'0 0.0
2015-Sep-01 01:33N 38°48' W 075°06'0 0.0
2015-Sep-01 00:33N 38°48' W 075°06'4 3.9
2015-Aug-31 23:33N 38°52' W 075°06'6 5.4
2015-Aug-31 22:31N 38°57' W 075°07'7 6.9
2015-Aug-31 21:33N 39°03' W 075°10'1 0.5
2015-Aug-31 20:33N 39°04' W 075°11'3 3.4
2015-Aug-31 19:33N 39°01' W 075°09'5 4.8
2015-Aug-31 18:33N 38°56' W 075°07'5 5.3
2015-Aug-31 17:33N 38°51' W 075°06'4 4.1
2015-Aug-31 16:33N 38°47' W 075°07'0 0.0
2015-Aug-31 15:33N 38°47' W 075°07'1 1.2
2015-Aug-31 14:34N 38°48' W 075°06'0 0.0
2015-Aug-31 13:34N 38°48' W 075°06'0 0.0
2015-Aug-31 12:33N 38°48' W 075°06'0 0.0
2015-Aug-31 11:33N 38°48' W 075°06'0 0.0
2015-Aug-31 10:34N 38°48' W 075°06'0 0.0
2015-Aug-31 09:34N 38°48' W 075°06'0 0.0
2015-Aug-31 08:33N 38°48' W 075°06'0 0.0
2015-Aug-31 07:34N 38°48' W 075°06'0 0.0
2015-Aug-31 06:33N 38°48' W 075°06'0 0.0
2015-Aug-31 05:33N 38°48' W 075°06'2 1.9
2015-Aug-31 04:33N 38°50' W 075°06'7 6.6
2015-Aug-31 03:33N 38°56' W 075°07'7 6.7
2015-Aug-31 02:33N 39°02' W 075°10'2 2.0
2015-Aug-31 01:32N 39°04' W 075°11'0 0.5
2015-Aug-31 00:33N 39°05' W 075°11'0 0.3
2015-Aug-30 23:33N 39°04' W 075°11'0 0.1
2015-Aug-30 22:33N 39°05' W 075°11'0 0.3
2015-Aug-30 21:33N 39°04' W 075°11'0 0.3
2015-Aug-30 20:33N 39°05' W 075°11'0 0.3
2015-Aug-30 19:33N 39°04' W 075°11'3 3.4
2015-Aug-30 18:33N 39°01' W 075°09'5 5.0
2015-Aug-30 17:33N 38°57' W 075°07'6 5.5
2015-Aug-30 16:33N 38°51' W 075°06'4 4.1
2015-Aug-30 15:33N 38°47' W 075°07'1 1.1
2015-Aug-30 14:33N 38°48' W 075°06'0 0.0
2015-Aug-30 13:33N 38°48' W 075°06'0 0.4
2015-Aug-30 12:33N 38°47' W 075°06'0 0.4
2015-Aug-30 11:33N 38°48' W 075°06'0 0.0
2015-Aug-30 10:33N 38°48' W 075°06'0 0.0
2015-Aug-30 09:33N 38°48' W 075°06'0 0.1
2015-Aug-30 08:33N 38°48' W 075°06'0 0.0
2015-Aug-30 07:33N 38°48' W 075°06'0 0.0
2015-Aug-30 06:33N 38°48' W 075°06'0 0.0
2015-Aug-30 05:33N 38°48' W 075°06'0 0.0
2015-Aug-30 04:33N 38°48' W 075°06'0 0.0
2015-Aug-30 03:33N 38°48' W 075°06'0 0.0
2015-Aug-30 02:33N 38°48' W 075°06'0 0.0
2015-Aug-30 01:34N 38°48' W 075°06'0 0.0
2015-Aug-30 00:34N 38°48' W 075°06'0 0.0
2015-Aug-29 23:33N 38°48' W 075°06'0 0.0
2015-Aug-29 22:33N 38°48' W 075°06'0 0.0
2015-Aug-29 21:34N 38°48' W 075°06'2 1.7
2015-Aug-29 20:33N 38°50' W 075°06'6 6.4
2015-Aug-29 19:33N 38°56' W 075°06'7 7.4
2015-Aug-29 18:34N 39°03' W 075°10'2 1.7
2015-Aug-29 17:33N 39°04' W 075°11'0 0.4
2015-Aug-29 16:33N 39°05' W 075°11'1 0.7
2015-Aug-29 15:34N 39°04' W 075°11'0 0.1
2015-Aug-29 14:33N 39°04' W 075°11'0 0.1
2015-Aug-29 13:33N 39°04' W 075°11'0 0.3
2015-Aug-29 12:33N 39°04' W 075°10'1 0.6
2015-Aug-29 11:30N 39°04' W 075°11'1 0.6
2015-Aug-29 10:33N 39°04' W 075°10'0 0.3
2015-Aug-29 09:34N 39°04' W 075°11'0 0.1
2015-Aug-29 08:33N 39°04' W 075°11'0 0.1
2015-Aug-29 07:33N 39°04' W 075°11'0 0.2
2015-Aug-29 06:34N 39°04' W 075°11'0 0.2
2015-Aug-29 05:33N 39°04' W 075°11'0 0.1
2015-Aug-29 04:33N 39°04' W 075°11'0 0.4
2015-Aug-29 03:33N 39°04' W 075°10'0 0.5
2015-Aug-29 02:33N 39°04' W 075°11'0 0.0
2015-Aug-29 01:33N 39°04' W 075°11'2 1.7
2015-Aug-29 00:33N 39°03' W 075°10'8 8.1
2015-Aug-28 23:33N 38°55' W 075°06'7 7.4
2015-Aug-28 22:34N 38°48' W 075°06'0 0.1
2015-Aug-28 21:33N 38°48' W 075°06'0 0.0
2015-Aug-28 20:33N 38°48' W 075°06'0 0.0
2015-Aug-28 19:33N 38°48' W 075°06'0 0.2
2015-Aug-28 18:33N 38°48' W 075°06'0 0.0
2015-Aug-28 17:33N 38°48' W 075°06'0 0.0
2015-Aug-28 16:33N 38°48' W 075°06'0 0.0
2015-Aug-28 15:33N 38°48' W 075°06'0 0.1
2015-Aug-28 14:33N 38°48' W 075°06'4 4.4
2015-Aug-28 13:33N 38°51' W 075°10'1 1.0
2015-Aug-28 12:33N 38°52' W 075°11'4 3.9
2015-Aug-28 11:33N 38°49' W 075°07'1 1.4
2015-Aug-28 10:33N 38°48' W 075°06'0 0.0
2015-Aug-28 09:33N 38°48' W 075°06'0 0.0
2015-Aug-28 08:33N 38°48' W 075°06'0 0.0
2015-Aug-28 07:33N 38°48' W 075°06'0 0.0
2015-Aug-28 06:33N 38°48' W 075°06'0 0.0
2015-Aug-28 05:33N 38°48' W 075°06'0 0.0
2015-Aug-28 04:33N 38°48' W 075°06'0 0.0
2015-Aug-28 03:33N 38°48' W 075°06'0 0.0
2015-Aug-28 02:34N 38°48' W 075°06'0 0.0
2015-Aug-28 01:33N 38°48' W 075°06'0 0.0
2015-Aug-28 00:33N 38°48' W 075°06'0 0.0
2015-Aug-27 23:33N 38°48' W 075°06'0 0.0
2015-Aug-27 22:33N 38°48' W 075°06'0 0.0
2015-Aug-27 21:34N 38°48' W 075°06'0 0.0
2015-Aug-27 20:33N 38°48' W 075°06'0 0.0
2015-Aug-27 19:33N 38°48' W 075°06'0 0.1
2015-Aug-27 18:33N 38°48' W 075°06'3 2.7
2015-Aug-27 17:33N 38°50' W 075°09'3 2.7
2015-Aug-27 16:33N 38°52' W 075°11'0 0.4
2015-Aug-27 15:33N 38°52' W 075°10'0 0.2
2015-Aug-27 14:34N 38°52' W 075°10'0 0.1
2015-Aug-27 13:33N 38°52' W 075°10'0 0.5
2015-Aug-27 12:34N 38°52' W 075°10'4 4.4
2015-Aug-27 11:33N 38°48' W 075°06'1 0.5
2015-Aug-27 10:33N 38°48' W 075°06'0 0.0
2015-Aug-27 09:33N 38°48' W 075°06'0 0.0
2015-Aug-27 08:33N 38°48' W 075°06'0 0.0
2015-Aug-27 07:33N 38°48' W 075°06'0 0.0
2015-Aug-27 06:33N 38°48' W 075°06'0 0.0
2015-Aug-27 05:34N 38°48' W 075°06'0 0.0
2015-Aug-27 04:33N 38°48' W 075°06'0 0.0
2015-Aug-27 03:33N 38°48' W 075°06'0 0.0
2015-Aug-27 02:33N 38°48' W 075°06'0 0.0
2015-Aug-27 01:34N 38°48' W 075°06'0 0.0
2015-Aug-27 00:33N 38°48' W 075°06'0 0.0
2015-Aug-26 23:33N 38°48' W 075°06'0 0.0
2015-Aug-26 22:33N 38°48' W 075°06'0 0.0
2015-Aug-26 21:33N 38°48' W 075°06'1 0.9
2015-Aug-26 20:33N 38°47' W 075°07'0 0.2
2015-Aug-26 19:33N 38°47' W 075°07'1 1.1
2015-Aug-26 18:33N 38°48' W 075°06'0 0.0
2015-Aug-26 17:33N 38°48' W 075°06'0 0.0
2015-Aug-26 16:34N 38°48' W 075°06'0 0.0
2015-Aug-26 15:33N 38°48' W 075°06'0 0.5
2015-Aug-26 14:33N 38°48' W 075°06'5 5.3
2015-Aug-26 13:33N 38°53' W 075°06'6 5.1
2015-Aug-26 12:26N 38°59' W 075°09'1 1.1
2015-Aug-26 11:30N 38°60' W 075°10'3 3.3
2015-Aug-26 10:34N 39°03' W 075°11'2 1.9
2015-Aug-26 09:33N 39°05' W 075°11'0 0.1
2015-Aug-26 08:33N 39°05' W 075°11'0 0.3
2015-Aug-26 07:34N 39°04' W 075°11'0 0.0
2015-Aug-26 06:34N 39°04' W 075°11'0 0.3
2015-Aug-26 05:33N 39°05' W 075°11'0 0.2
2015-Aug-26 04:33N 39°04' W 075°11'0 0.3
2015-Aug-26 03:33N 39°05' W 075°11'3 2.5
2015-Aug-26 02:33N 39°07' W 075°13'0 0.0
2015-Aug-26 01:33N 39°07' W 075°13'0 0.3
2015-Aug-26 00:33N 39°06' W 075°12'0 0.1
2015-Aug-25 23:19N 39°07' W 075°12'0 0.1
2015-Aug-25 22:33N 39°07' W 075°12'0 0.2
2015-Aug-25 21:33N 39°07' W 075°13'0 0.1
2015-Aug-25 20:33N 39°07' W 075°13'0 0.0
2015-Aug-25 19:30N 39°07' W 075°13'0 0.1
2015-Aug-25 18:33N 39°07' W 075°13'0 0.0
2015-Aug-25 17:33N 39°07' W 075°13'2 2.1
2015-Aug-25 16:33N 39°05' W 075°11'6 5.5
2015-Aug-25 15:34N 38°60' W 075°09'4 4.0
2015-Aug-25 14:33N 38°56' W 075°06'4 4.3
2015-Aug-25 13:33N 38°52' W 075°06'4 3.7
2015-Aug-25 12:33N 38°48' W 075°06'0 0.3
2015-Aug-25 11:33N 38°48' W 075°06'0 0.0
2015-Aug-25 10:33N 38°48' W 075°06'0 0.0
2015-Aug-25 09:33N 38°48' W 075°06'  
Track history (hours):
 
Tides and Currents Weather Stations Pressure Air Temp Water Temp Dewpoint Dewpoint Depression Visibility Wind Speed Wind Dir Waves Ship Positions

Tug "trevor"

Owner: WEEKS MARINE, INC., CRANFORD, NJ. More information available from US FCC via Universal Licensing System and Coast Guard Vessel Documentation Center.

Last reported at 2015-Sep-04 07:33 UTC. Time now 2015-Sep-04 07:56 UTC.
Position N 39°03' W 075°10'.

Length 21 m.

Type: Dredging. MMSI: 366643140.

Date/timePositionNaut miles runAvg speedWind from/ knotsBaromVisibWave heightAir tempDewpointWater temp
2015-Sep-04 07:33N 39°03' W 075°10'0 0.1
2015-Sep-04 06:33N 39°03' W 075°10'0 0.0
2015-Sep-04 05:33N 39°03' W 075°10'0 0.2
2015-Sep-04 04:33N 39°04' W 075°10'0 0.3
2015-Sep-04 03:33N 39°04' W 075°11'1 0.6
2015-Sep-04 02:33N 39°03' W 075°10'1 0.9
2015-Sep-04 01:33N 39°04' W 075°11'0 0.5
2015-Sep-04 00:33N 39°04' W 075°10'0 0.3
2015-Sep-03 23:33N 39°03' W 075°10'0 0.4
2015-Sep-03 22:33N 39°04' W 075°10'1 1.2
2015-Sep-03 21:33N 39°03' W 075°10'5 5.4
2015-Sep-03 20:33N 38°58' W 075°07'6 6.2
2015-Sep-03 19:33N 38°51' W 075°06'4 3.8
2015-Sep-03 18:33N 38°48' W 075°06'0 0.0
2015-Sep-03 17:33N 38°48' W 075°06'0 0.0
2015-Sep-03 16:33N 38°48' W 075°06'0 0.3
2015-Sep-03 15:33N 38°48' W 075°06'5 4.8
2015-Sep-03 14:33N 38°53' W 075°06'4 4.4
2015-Sep-03 13:33N 38°57' W 075°07'7 7.0
2015-Sep-03 12:33N 39°04' W 075°11'1 1.3
2015-Sep-03 11:33N 39°05' W 075°11'0 0.1
2015-Sep-03 10:33N 39°05' W 075°11'0 0.3
2015-Sep-03 09:33N 39°05' W 075°11'0 0.1
2015-Sep-03 08:33N 39°05' W 075°11'0 0.1
2015-Sep-03 07:33N 39°05' W 075°11'0 0.1
2015-Sep-03 06:33N 39°05' W 075°11'0 0.1
2015-Sep-03 05:33N 39°05' W 075°11'0 0.1
2015-Sep-03 04:33N 39°05' W 075°11'0 0.0
2015-Sep-03 03:27N 39°05' W 075°11'0 0.1
2015-Sep-03 02:33N 39°05' W 075°11'0 0.1
2015-Sep-03 01:33N 39°05' W 075°11'0 0.0
2015-Sep-03 00:33N 39°05' W 075°11'0 0.2
2015-Sep-02 23:33N 39°05' W 075°11'0 0.0
2015-Sep-02 22:33N 39°05' W 075°11'0 0.2
2015-Sep-02 21:33N 39°05' W 075°11'0 0.3
2015-Sep-02 20:33N 39°05' W 075°11'0 0.0
2015-Sep-02 19:33N 39°05' W 075°11'0 0.2
2015-Sep-02 18:33N 39°05' W 075°11'0 0.1
2015-Sep-02 17:33N 39°05' W 075°11'0 0.1
2015-Sep-02 16:33N 39°05' W 075°11'0 0.1
2015-Sep-02 15:33N 39°05' W 075°11'0 0.1
2015-Sep-02 14:33N 39°05' W 075°11'0 0.2
2015-Sep-02 13:26N 39°05' W 075°11'1 1.0
2015-Sep-02 12:33N 39°04' W 075°11'6 6.5
2015-Sep-02 11:34N 38°58' W 075°08'1 1.5
2015-Sep-02 10:33N 38°60' W 075°08'5 5.3
2015-Sep-02 09:33N 39°05' W 075°11'0 0.1
2015-Sep-02 08:33N 39°05' W 075°11'0 0.2
2015-Sep-02 07:33N 39°04' W 075°11'0 0.1
2015-Sep-02 06:33N 39°04' W 075°11'0 0.2
2015-Sep-02 05:33N 39°05' W 075°11'0 0.0
2015-Sep-02 04:33N 39°05' W 075°11'0 0.1
2015-Sep-02 03:33N 39°05' W 075°11'0 0.1
2015-Sep-02 02:33N 39°05' W 075°11'0 0.2
2015-Sep-02 01:33N 39°04' W 075°11'0 0.1
2015-Sep-02 00:33N 39°05' W 075°11'0 0.0
2015-Sep-01 23:33N 39°05' W 075°11'0 0.3
2015-Sep-01 22:33N 39°04' W 075°11'0 0.1
2015-Sep-01 21:33N 39°04' W 075°11'0 0.1
2015-Sep-01 20:33N 39°04' W 075°11'0 0.0
2015-Sep-01 19:33N 39°04' W 075°11'0 0.0
2015-Sep-01 18:33N 39°04' W 075°11'0 0.1
2015-Sep-01 17:33N 39°04' W 075°11'0 0.1
2015-Sep-01 16:33N 39°04' W 075°11'0 0.1
2015-Sep-01 15:33N 39°04' W 075°11'0 0.1
2015-Sep-01 14:32N 39°04' W 075°11'0 0.2
2015-Sep-01 13:27N 39°04' W 075°11'0 0.4
2015-Sep-01 12:33N 39°05' W 075°11'6 5.6
2015-Sep-01 11:33N 38°60' W 075°08'7 7.4
2015-Sep-01 10:33N 38°52' W 075°06'4 4.3
2015-Sep-01 09:33N 38°48' W 075°06'0 0.3
2015-Sep-01 08:33N 38°48' W 075°06'0 0.0
2015-Sep-01 07:33N 38°48' W 075°06'0 0.0
2015-Sep-01 06:33N 38°48' W 075°06'0 0.0
2015-Sep-01 05:33N 38°48' W 075°06'0 0.0
2015-Sep-01 04:33N 38°48' W 075°06'0 0.0
2015-Sep-01 03:33N 38°48' W 075°06'0 0.0
2015-Sep-01 02:33N 38°48' W 075°06'0 0.0
2015-Sep-01 01:33N 38°48' W 075°06'0 0.0
2015-Sep-01 00:33N 38°48' W 075°06'4 3.9
2015-Aug-31 23:33N 38°52' W 075°06'6 5.4
2015-Aug-31 22:31N 38°57' W 075°07'7 6.9
2015-Aug-31 21:33N 39°03' W 075°10'1 0.5
2015-Aug-31 20:33N 39°04' W 075°11'3 3.4
2015-Aug-31 19:33N 39°01' W 075°09'5 4.8
2015-Aug-31 18:33N 38°56' W 075°07'5 5.3
2015-Aug-31 17:33N 38°51' W 075°06'4 4.1
2015-Aug-31 16:33N 38°47' W 075°07'0 0.0
2015-Aug-31 15:33N 38°47' W 075°07'1 1.2
2015-Aug-31 14:34N 38°48' W 075°06'0 0.0
2015-Aug-31 13:34N 38°48' W 075°06'0 0.0
2015-Aug-31 12:33N 38°48' W 075°06'0 0.0
2015-Aug-31 11:33N 38°48' W 075°06'0 0.0
2015-Aug-31 10:34N 38°48' W 075°06'0 0.0
2015-Aug-31 09:34N 38°48' W 075°06'0 0.0
2015-Aug-31 08:33N 38°48' W 075°06'0 0.0
2015-Aug-31 07:34N 38°48' W 075°06'0 0.0
2015-Aug-31 06:33N 38°48' W 075°06'0 0.0
2015-Aug-31 05:33N 38°48' W 075°06'2 1.9
2015-Aug-31 04:33N 38°50' W 075°06'7 6.6
2015-Aug-31 03:33N 38°56' W 075°07'7 6.7
2015-Aug-31 02:33N 39°02' W 075°10'2 2.0
2015-Aug-31 01:32N 39°04' W 075°11'0 0.5
2015-Aug-31 00:33N 39°05' W 075°11'0 0.3
2015-Aug-30 23:33N 39°04' W 075°11'0 0.1
2015-Aug-30 22:33N 39°05' W 075°11'0 0.3
2015-Aug-30 21:33N 39°04' W 075°11'0 0.3
2015-Aug-30 20:33N 39°05' W 075°11'0 0.3
2015-Aug-30 19:33N 39°04' W 075°11'3 3.4
2015-Aug-30 18:33N 39°01' W 075°09'5 5.0
2015-Aug-30 17:33N 38°57' W 075°07'6 5.5
2015-Aug-30 16:33N 38°51' W 075°06'4 4.1
2015-Aug-30 15:33N 38°47' W 075°07'1 1.1
2015-Aug-30 14:33N 38°48' W 075°06'0 0.0
2015-Aug-30 13:33N 38°48' W 075°06'0 0.4
2015-Aug-30 12:33N 38°47' W 075°06'0 0.4
2015-Aug-30 11:33N 38°48' W 075°06'0 0.0
2015-Aug-30 10:33N 38°48' W 075°06'0 0.0
2015-Aug-30 09:33N 38°48' W 075°06'0 0.1
2015-Aug-30 08:33N 38°48' W 075°06'0 0.0
2015-Aug-30 07:33N 38°48' W 075°06'0 0.0
2015-Aug-30 06:33N 38°48' W 075°06'0 0.0
2015-Aug-30 05:33N 38°48' W 075°06'0 0.0
2015-Aug-30 04:33N 38°48' W 075°06'0 0.0
2015-Aug-30 03:33N 38°48' W 075°06'0 0.0
2015-Aug-30 02:33N 38°48' W 075°06'0 0.0
2015-Aug-30 01:34N 38°48' W 075°06'0 0.0
2015-Aug-30 00:34N 38°48' W 075°06'0 0.0
2015-Aug-29 23:33N 38°48' W 075°06'0 0.0
2015-Aug-29 22:33N 38°48' W 075°06'0 0.0
2015-Aug-29 21:34N 38°48' W 075°06'2 1.7
2015-Aug-29 20:33N 38°50' W 075°06'6 6.4
2015-Aug-29 19:33N 38°56' W 075°06'7 7.4
2015-Aug-29 18:34N 39°03' W 075°10'2 1.7
2015-Aug-29 17:33N 39°04' W 075°11'0 0.4
2015-Aug-29 16:33N 39°05' W 075°11'1 0.7
2015-Aug-29 15:34N 39°04' W 075°11'0 0.1
2015-Aug-29 14:33N 39°04' W 075°11'0 0.1
2015-Aug-29 13:33N 39°04' W 075°11'0 0.3
2015-Aug-29 12:33N 39°04' W 075°10'1 0.6
2015-Aug-29 11:30N 39°04' W 075°11'1 0.6
2015-Aug-29 10:33N 39°04' W 075°10'0 0.3
2015-Aug-29 09:34N 39°04' W 075°11'0 0.1
2015-Aug-29 08:33N 39°04' W 075°11'0 0.1
2015-Aug-29 07:33N 39°04' W 075°11'0 0.2
2015-Aug-29 06:34N 39°04' W 075°11'0 0.2
2015-Aug-29 05:33N 39°04' W 075°11'0 0.1
2015-Aug-29 04:33N 39°04' W 075°11'0 0.4
2015-Aug-29 03:33N 39°04' W 075°10'0 0.5
2015-Aug-29 02:33N 39°04' W 075°11'0 0.0
2015-Aug-29 01:33N 39°04' W 075°11'2 1.7
2015-Aug-29 00:33N 39°03' W 075°10'8 8.1
2015-Aug-28 23:33N 38°55' W 075°06'7 7.4
2015-Aug-28 22:34N 38°48' W 075°06'0 0.1
2015-Aug-28 21:33N 38°48' W 075°06'0 0.0
2015-Aug-28 20:33N 38°48' W 075°06'0 0.0
2015-Aug-28 19:33N 38°48' W 075°06'0 0.2
2015-Aug-28 18:33N 38°48' W 075°06'0 0.0
2015-Aug-28 17:33N 38°48' W 075°06'0 0.0
2015-Aug-28 16:33N 38°48' W 075°06'0 0.0
2015-Aug-28 15:33N 38°48' W 075°06'0 0.1
2015-Aug-28 14:33N 38°48' W 075°06'4 4.4
2015-Aug-28 13:33N 38°51' W 075°10'1 1.0
2015-Aug-28 12:33N 38°52' W 075°11'4 3.9
2015-Aug-28 11:33N 38°49' W 075°07'1 1.4
2015-Aug-28 10:33N 38°48' W 075°06'0 0.0
2015-Aug-28 09:33N 38°48' W 075°06'0 0.0
2015-Aug-28 08:33N 38°48' W 075°06'0 0.0
2015-Aug-28 07:33N 38°48' W 075°06'0 0.0
2015-Aug-28 06:33N 38°48' W 075°06'0 0.0
2015-Aug-28 05:33N 38°48' W 075°06'0 0.0
2015-Aug-28 04:33N 38°48' W 075°06'0 0.0
2015-Aug-28 03:33N 38°48' W 075°06'0 0.0
2015-Aug-28 02:34N 38°48' W 075°06'0 0.0
2015-Aug-28 01:33N 38°48' W 075°06'0 0.0
2015-Aug-28 00:33N 38°48' W 075°06'0 0.0
2015-Aug-27 23:33N 38°48' W 075°06'0 0.0
2015-Aug-27 22:33N 38°48' W 075°06'0 0.0
2015-Aug-27 21:34N 38°48' W 075°06'0 0.0
2015-Aug-27 20:33N 38°48' W 075°06'0 0.0
2015-Aug-27 19:33N 38°48' W 075°06'0 0.1
2015-Aug-27 18:33N 38°48' W 075°06'3 2.7
2015-Aug-27 17:33N 38°50' W 075°09'3 2.7
2015-Aug-27 16:33N 38°52' W 075°11'0 0.4
2015-Aug-27 15:33N 38°52' W 075°10'0 0.2
2015-Aug-27 14:34N 38°52' W 075°10'0 0.1
2015-Aug-27 13:33N 38°52' W 075°10'0 0.5
2015-Aug-27 12:34N 38°52' W 075°10'4 4.4
2015-Aug-27 11:33N 38°48' W 075°06'1 0.5
2015-Aug-27 10:33N 38°48' W 075°06'0 0.0
2015-Aug-27 09:33N 38°48' W 075°06'0 0.0
2015-Aug-27 08:33N 38°48' W 075°06'0 0.0
2015-Aug-27 07:33N 38°48' W 075°06'0 0.0
2015-Aug-27 06:33N 38°48' W 075°06'0 0.0
2015-Aug-27 05:34N 38°48' W 075°06'0 0.0
2015-Aug-27 04:33N 38°48' W 075°06'0 0.0
2015-Aug-27 03:33N 38°48' W 075°06'0 0.0
2015-Aug-27 02:33N 38°48' W 075°06'0 0.0
2015-Aug-27 01:34N 38°48' W 075°06'0 0.0
2015-Aug-27 00:33N 38°48' W 075°06'0 0.0
2015-Aug-26 23:33N 38°48' W 075°06'0 0.0
2015-Aug-26 22:33N 38°48' W 075°06'0 0.0
2015-Aug-26 21:33N 38°48' W 075°06'1 0.9
2015-Aug-26 20:33N 38°47' W 075°07'0 0.2
2015-Aug-26 19:33N 38°47' W 075°07'1 1.1
2015-Aug-26 18:33N 38°48' W 075°06'0 0.0
2015-Aug-26 17:33N 38°48' W 075°06'0 0.0
2015-Aug-26 16:34N 38°48' W 075°06'0 0.0
2015-Aug-26 15:33N 38°48' W 075°06'0 0.5
2015-Aug-26 14:33N 38°48' W 075°06'5 5.3
2015-Aug-26 13:33N 38°53' W 075°06'6 5.1
2015-Aug-26 12:26N 38°59' W 075°09'1 1.1
2015-Aug-26 11:30N 38°60' W 075°10'3 3.3
2015-Aug-26 10:34N 39°03' W 075°11'2 1.9
2015-Aug-26 09:33N 39°05' W 075°11'0 0.1
2015-Aug-26 08:33N 39°05' W 075°11'0 0.3
2015-Aug-26 07:34N 39°04' W 075°11'0 0.0
2015-Aug-26 06:34N 39°04' W 075°11'0 0.3
2015-Aug-26 05:33N 39°05' W 075°11'0 0.2
2015-Aug-26 04:33N 39°04' W 075°11'0 0.3
2015-Aug-26 03:33N 39°05' W 075°11'3 2.5
2015-Aug-26 02:33N 39°07' W 075°13'0 0.0
2015-Aug-26 01:33N 39°07' W 075°13'0 0.3
2015-Aug-26 00:33N 39°06' W 075°12'0 0.1
2015-Aug-25 23:19N 39°07' W 075°12'0 0.1
2015-Aug-25 22:33N 39°07' W 075°12'0 0.2
2015-Aug-25 21:33N 39°07' W 075°13'0 0.1
2015-Aug-25 20:33N 39°07' W 075°13'0 0.0
2015-Aug-25 19:30N 39°07' W 075°13'0 0.1
2015-Aug-25 18:33N 39°07' W 075°13'0 0.0
2015-Aug-25 17:33N 39°07' W 075°13'2 2.1
2015-Aug-25 16:33N 39°05' W 075°11'6 5.5
2015-Aug-25 15:34N 38°60' W 075°09'4 4.0
2015-Aug-25 14:33N 38°56' W 075°06'4 4.3
2015-Aug-25 13:33N 38°52' W 075°06'4 3.7
2015-Aug-25 12:33N 38°48' W 075°06'0 0.3
2015-Aug-25 11:33N 38°48' W 075°06'0 0.0
2015-Aug-25 10:33N 38°48' W 075°06'0 0.0
2015-Aug-25 09:33N 38°48' W 075°06'  

Dump ship's entire track history